Cap Chat, Canada
Current Conditions -  °F | °C
As of 5:00 PM on Wednesday 22 Oct 2014 (Local Time) from CYBC Reporting Station
Clear Clear  
Wind Chill: 36°   Ceiling: Unl
Heat Index: 41°   Visibility: 9mi
Dew Point: 36°   Wind: 7mph
Humidity: 81%   Direction: 80°E
Pressure: 30.47"   Gusts: NA
Location:  49.1°N, 66.68°W
Report Text: CYBC 222100Z AUTO 08006KT 9SM CLR 05/02 A3047 RMK SLP320
Loading
Personal Weather Stations






























Interactive Weather Map
Tropical Storm Tracking
New forecast layout! Learn more

10-Day Weather Forecast

Advertisements
Track Severe Weather on mobile